Time;durP1;ratioP1;P1;durP2;ratioP2;P2;SDS_P1;SDS_P2;PMS_P1;PMS_P2;Temp;Humidity;BMP_temperature;BMP_pressure;BME280_temperature;BME280_humidity;BME280_pressure;Samples;Min_cycle;Max_cycle;Signal;HPM_P1;HPM_P2
2021/11/25 00:01:47;;;;;;;30.55;13.05;;;;;;;6.23;97.65;101608.75;5001732;28;20100;-75
2021/11/25 00:04:13;;;;;;;30.33;12.88;;;;;;;6.09;97.87;101612.38;5002930;28;20030;-75
2021/11/25 00:06:38;;;;;;;30.88;12.48;;;;;;;6.05;98.31;101606.63;5000797;28;20084;-75
2021/11/25 00:09:04;;;;;;;28.55;11.43;;;;;;;5.98;98.57;101599.66;5000700;28;20039;-75
2021/11/25 00:11:30;;;;;;;30.85;12.70;;;;;;;5.99;99.23;101604.75;5005963;28;20022;-75
2021/11/25 00:13:55;;;;;;;28.60;13.00;;;;;;;5.99;99.17;101599.44;5002911;28;20017;-75
2021/11/25 00:16:21;;;;;;;27.05;12.40;;;;;;;6.07;98.72;101593.94;5004234;28;20642;-75
2021/11/25 00:18:46;;;;;;;26.98;11.65;;;;;;;6.16;98.40;101591.94;5002233;28;20025;-75
2021/11/25 00:21:12;;;;;;;28.58;12.57;;;;;;;6.19;97.79;101588.88;5001178;28;20030;-75
2021/11/25 00:23:41;;;;;;;31.13;11.52;;;;;;;6.24;97.39;101583.78;4999191;28;20041;-75
2021/11/25 00:26:06;;;;;;;26.88;12.68;;;;;;;6.25;97.43;101580.09;5017874;28;20045;-75
2021/11/25 00:28:32;;;;;;;27.48;11.88;;;;;;;6.32;96.89;101580.16;5000716;28;20031;-75
2021/11/25 00:30:59;;;;;;;26.58;11.27;;;;;;;6.27;96.84;101577.25;5007568;28;20026;-75
2021/11/25 00:33:24;;;;;;;25.98;12.20;;;;;;;6.31;96.63;101583.81;4993727;28;20030;-75
2021/11/25 00:35:50;;;;;;;29.00;11.85;;;;;;;6.29;96.73;101575.22;5001993;28;20091;-75
2021/11/25 00:38:15;;;;;;;27.05;12.00;;;;;;;6.27;96.28;101570.06;5005110;28;20896;-75
2021/11/25 00:40:41;;;;;;;27.35;10.93;;;;;;;6.28;96.15;101569.09;5019516;28;20073;-75
2021/11/25 00:43:06;;;;;;;27.75;11.18;;;;;;;6.29;96.07;101560.06;5006386;28;20448;-75
2021/11/25 00:45:32;;;;;;;23.77;11.23;;;;;;;6.08;95.65;101562.84;5009695;28;20026;-75
2021/11/25 00:47:57;;;;;;;23.98;10.35;;;;;;;5.98;96.21;101557.09;5002029;28;20100;-75
2021/11/25 00:50:23;;;;;;;25.85;11.23;;;;;;;6.02;96.04;101553.00;5002787;28;20080;-74
2021/11/25 00:52:49;;;;;;;29.55;11.45;;;;;;;6.06;96.55;101549.75;5007299;28;20030;-75
2021/11/25 00:55:15;;;;;;;26.65;10.13;;;;;;;6.13;96.06;101555.09;5002742;28;20030;-75
2021/11/25 00:57:41;;;;;;;21.13;12.32;;;;;;;6.19;95.95;101553.47;5003519;28;20041;-75
2021/11/25 01:00:11;;;;;;;24.60;10.55;;;;;;;6.19;95.57;101548.97;5018722;28;20025;-75
2021/11/25 01:02:37;;;;;;;25.67;11.32;;;;;;;6.22;95.55;101547.75;5004945;28;20026;-75
2021/11/25 01:05:03;;;;;;;25.65;10.20;;;;;;;6.20;95.05;101537.31;5020870;28;20080;-75
2021/11/25 01:07:29;;;;;;;23.83;10.50;;;;;;;6.05;94.68;101532.13;5007548;28;20030;-75
2021/11/25 01:09:54;;;;;;;23.92;10.73;;;;;;;6.08;95.02;101530.91;5004430;28;20461;-75
2021/11/25 01:12:20;;;;;;;20.70;9.85;;;;;;;6.18;95.30;101526.06;5004082;28;20028;-75
2021/11/25 01:14:45;;;;;;;21.50;9.80;;;;;;;6.17;94.78;101518.28;5005207;28;20029;-75
2021/11/25 01:17:11;;;;;;;22.02;10.23;;;;;;;6.15;94.68;101505.16;5006411;28;20061;-75
2021/11/25 01:19:37;;;;;;;20.35;9.05;;;;;;;6.15;94.44;101501.69;5004799;28;20038;-75
2021/11/25 01:22:04;;;;;;;24.67;10.70;;;;;;;6.19;94.79;101498.41;5020410;28;20041;-75
2021/11/25 01:24:30;;;;;;;25.65;10.30;;;;;;;6.11;94.29;101497.78;5003750;28;20165;-75
2021/11/25 01:26:55;;;;;;;21.83;9.73;;;;;;;6.16;94.40;101498.00;5003842;28;20148;-74
2021/11/25 01:29:21;;;;;;;21.83;10.27;;;;;;;6.10;94.48;101498.78;5011444;28;20026;-75
2021/11/25 01:31:47;;;;;;;26.45;11.93;;;;;;;6.01;94.31;101498.16;4994563;28;20030;-75
2021/11/25 01:34:12;;;;;;;22.90;9.68;;;;;;;6.03;94.32;101501.44;5002397;28;20025;-75
2021/11/25 01:36:38;;;;;;;22.52;10.75;;;;;;;6.06;94.74;101495.72;5002172;28;20092;-75
2021/11/25 01:39:04;;;;;;;20.92;10.50;;;;;;;6.09;94.43;101487.31;5003132;28;20034;-75
2021/11/25 01:41:30;;;;;;;25.63;11.63;;;;;;;6.10;94.37;101483.63;5017078;28;20103;-75
2021/11/25 01:43:55;;;;;;;21.30;9.52;;;;;;;6.04;94.59;101477.28;5004382;28;20022;-75
2021/11/25 01:46:22;;;;;;;22.58;10.23;;;;;;;6.09;94.64;101474.03;5002450;28;20496;-75
2021/11/25 01:51:16;;;;;;;21.08;10.73;;;;;;;5.98;94.53;101472.78;4997316;28;20057;-54
2021/11/25 01:53:42;;;;;;;18.58;10.02;;;;;;;6.01;94.85;101477.69;4999034;28;20042;-56
2021/11/25 01:56:08;;;;;;;23.67;10.23;;;;;;;5.94;94.60;101473.38;4996291;28;20026;-57
2021/11/25 01:58:35;;;;;;;22.65;9.60;;;;;;;6.00;94.24;101469.91;5000508;28;20040;-55
2021/11/25 02:01:07;;;;;;;19.33;9.45;;;;;;;5.98;94.15;101466.63;4999556;28;20041;-55
2021/11/25 02:03:33;;;;;;;19.48;9.90;;;;;;;6.03;94.21;101467.66;4997460;28;20029;-56
2021/11/25 02:05:59;;;;;;;18.85;9.48;;;;;;;6.05;94.42;101462.97;4998831;28;20057;-58
2021/11/25 02:08:25;;;;;;;21.63;10.00;;;;;;;6.07;94.17;101463.59;4997313;28;20056;-55
2021/11/25 02:10:52;;;;;;;19.52;9.65;;;;;;;6.02;94.01;101457.22;4997695;28;20030;-56
2021/11/25 02:13:18;;;;;;;20.27;10.38;;;;;;;6.07;94.10;101455.59;4997275;28;20030;-60
2021/11/25 02:15:44;;;;;;;18.85;9.65;;;;;;;6.06;93.86;101442.50;4997612;28;20146;-57
2021/11/25 02:18:14;;;;;;;20.80;9.50;;;;;;;6.06;93.98;101438.00;4995165;28;20027;-56
2021/11/25 02:20:42;;;;;;;17.90;9.07;;;;;;;6.09;93.49;101434.13;4994391;28;20212;-57
2021/11/25 02:23:11;;;;;;;23.33;10.90;;;;;;;6.09;93.77;101431.44;5006869;28;20468;-57
2021/11/25 02:25:37;;;;;;;17.13;8.93;;;;;;;6.06;93.40;101426.53;4997086;28;20042;-57
2021/11/25 02:28:04;;;;;;;16.70;9.13;;;;;;;6.08;93.54;101419.19;4999725;28;20030;-54
2021/11/25 02:30:30;;;;;;;18.05;8.77;;;;;;;6.03;93.07;101416.31;4999858;28;20041;-56
2021/11/25 02:32:56;;;;;;;20.10;9.90;;;;;;;5.99;92.89;101420.41;4992589;28;20034;-55
2021/11/25 02:35:28;;;;;;;17.50;9.00;;;;;;;5.95;92.62;101412.00;4998650;28;20036;-59
2021/11/25 02:37:54;;;;;;;15.88;7.90;;;;;;;5.79;92.07;101411.53;5001926;28;20464;-59
2021/11/25 02:40:25;;;;;;;17.77;9.38;;;;;;;5.67;91.83;101409.44;4999412;28;20049;-56
2021/11/25 02:42:55;;;;;;;15.95;7.68;;;;;;;5.61;90.88;101404.09;4994212;28;20072;-59
2021/11/25 02:45:22;;;;;;;18.98;8.32;;;;;;;5.61;91.07;101396.94;4996648;28;20042;-58
2021/11/25 02:47:47;;;;;;;15.40;7.63;;;;;;;5.48;90.43;101386.25;4999196;28;20237;-59
2021/11/25 02:50:18;;;;;;;13.88;7.97;;;;;;;5.50;90.32;101380.75;5002638;28;20534;-56
2021/11/25 02:52:44;;;;;;;15.20;7.80;;;;;;;5.57;90.18;101374.44;4999719;28;20445;-58
2021/11/25 02:55:11;;;;;;;13.32;8.02;;;;;;;5.54;90.03;101372.16;4997964;28;20108;-57
2021/11/25 02:57:37;;;;;;;14.68;7.35;;;;;;;5.61;89.97;101370.34;4997973;28;20080;-53
2021/11/25 03:00:15;;;;;;;13.57;7.68;;;;;;;5.58;90.04;101378.75;4999355;28;20105;-56
2021/11/25 03:02:40;;;;;;;17.42;8.18;;;;;;;5.61;89.94;101370.34;4995294;28;20056;-57
2021/11/25 03:05:09;;;;;;;12.90;7.68;;;;;;;5.66;90.06;101367.91;4995629;28;20504;-58
2021/11/25 03:07:34;;;;;;;13.25;8.32;;;;;;;5.60;89.16;101360.75;4999334;28;20397;-54
2021/11/25 03:10:00;;;;;;;16.45;8.57;;;;;;;5.59;89.00;101361.78;4999647;28;20408;-57
2021/11/25 03:12:26;;;;;;;15.48;8.02;;;;;;;5.58;88.89;101369.94;4998180;28;20495;-57
2021/11/25 03:14:51;;;;;;;17.42;8.70;;;;;;;5.57;88.91;101353.19;5000709;28;20025;-54
2021/11/25 03:17:17;;;;;;;14.15;7.18;;;;;;;5.59;88.87;101353.78;4995525;28;20137;-57
2021/11/25 03:19:42;;;;;;;16.40;7.75;;;;;;;5.59;88.88;101350.31;5000496;28;20034;-54
2021/11/25 03:22:07;;;;;;;14.45;7.55;;;;;;;5.47;88.70;101350.06;4994702;28;20367;-56
2021/11/25 03:24:33;;;;;;;13.90;7.40;;;;;;;5.45;88.41;101344.94;4997464;28;20098;-56
2021/11/25 03:26:58;;;;;;;16.17;7.95;;;;;;;5.51;89.06;101345.97;4999296;28;20041;-57
2021/11/25 03:29:26;;;;;;;13.85;7.63;;;;;;;5.53;88.89;101351.09;4996129;28;20025;-59
2021/11/25 03:31:52;;;;;;;15.52;8.52;;;;;;;5.61;89.02;101348.28;4994206;28;20026;-55
2021/11/25 03:34:17;;;;;;;15.95;8.23;;;;;;;5.61;88.07;101345.63;4997487;28;20028;-60
2021/11/25 03:36:43;;;;;;;16.05;9.45;;;;;;;5.40;84.27;101344.75;4994021;28;20034;-55
2021/11/25 03:39:08;;;;;;;18.10;10.30;;;;;;;5.52;85.48;101339.66;5001006;28;20041;-57
2021/11/25 03:41:35;;;;;;;18.85;9.90;;;;;;;5.55;85.42;101331.28;4994068;28;20104;-56
2021/11/25 03:44:00;;;;;;;18.70;10.82;;;;;;;5.35;81.73;101320.59;4998543;28;20018;-56
2021/11/25 03:46:26;;;;;;;23.45;12.77;;;;;;;5.44;82.21;101321.25;4998355;28;20042;-59
2021/11/25 03:48:52;;;;;;;21.67;12.23;;;;;;;5.50;82.12;101323.09;5000067;28;20053;-54
2021/11/25 03:51:17;;;;;;;25.98;14.48;;;;;;;5.44;81.57;101318.59;4996367;28;20439;-58
2021/11/25 03:53:45;;;;;;;23.20;13.70;;;;;;;5.46;81.89;101320.00;4999565;28;20487;-56
2021/11/25 03:56:12;;;;;;;29.15;14.35;;;;;;;5.44;82.12;101308.78;5000649;28;20421;-56
2021/11/25 03:58:37;;;;;;;26.52;14.13;;;;;;;5.50;82.58;101304.47;4994760;28;20424;-56
2021/11/25 04:01:04;;;;;;;25.52;14.15;;;;;;;5.48;82.88;101306.53;4995860;28;20017;-56
2021/11/25 04:03:29;;;;;;;23.83;12.93;;;;;;;5.45;82.45;101298.97;4993974;28;20350;-55
2021/11/25 04:05:55;;;;;;;23.45;11.85;;;;;;;5.46;82.86;101301.41;5002155;28;20041;-57
2021/11/25 04:08:20;;;;;;;23.15;11.80;;;;;;;5.46;83.31;101295.28;4993167;28;20029;-55
2021/11/25 04:10:46;;;;;;;23.25;12.30;;;;;;;5.46;83.36;101295.28;4997590;28;20098;-59
2021/11/25 04:13:12;;;;;;;23.95;12.80;;;;;;;5.55;83.49;101293.22;4995926;28;20096;-58
2021/11/25 04:15:38;;;;;;;24.20;12.98;;;;;;;5.51;83.50;101290.16;4995983;28;20050;-55
2021/11/25 04:18:03;;;;;;;22.23;12.23;;;;;;;5.56;83.99;101287.72;4993325;28;20021;-59
2021/11/25 04:20:29;;;;;;;25.73;13.20;;;;;;;5.48;83.87;101282.59;4998582;28;20275;-56
2021/11/25 04:22:55;;;;;;;22.83;12.55;;;;;;;5.52;84.00;101273.19;5009787;28;20065;-55
2021/11/25 04:25:20;;;;;;;25.02;12.77;;;;;;;5.56;84.37;101266.44;4996259;28;20116;-57
2021/11/25 04:27:46;;;;;;;23.80;12.77;;;;;;;5.57;84.10;101261.97;4992917;28;20042;-56
2021/11/25 04:35:33;;;;;;;26.20;13.88;;;;;;;5.46;83.64;101258.06;4997166;28;20124;-59
2021/11/25 04:38:07;;;;;;;23.08;12.75;;;;;;;5.43;83.98;101250.50;4996988;28;20106;-56
2021/11/25 04:40:47;;;;;;;24.23;13.43;;;;;;;5.45;84.42;101243.97;4990251;28;20057;-56
2021/11/25 04:43:14;;;;;;;24.33;13.68;;;;;;;5.49;84.54;101236.41;4999444;28;20022;-54
2021/11/25 04:45:41;;;;;;;25.67;13.48;;;;;;;5.45;84.19;101235.16;4996811;28;20065;-59
2021/11/25 04:48:08;;;;;;;22.80;13.27;;;;;;;5.51;84.45;101234.34;4997757;28;20030;-60
2021/11/25 04:50:34;;;;;;;23.35;13.45;;;;;;;5.54;84.79;101225.97;4998791;28;20793;-53
2021/11/25 04:53:00;;;;;;;22.58;12.23;;;;;;;5.50;84.66;101222.09;4998905;28;20042;-56
2021/11/25 04:55:25;;;;;;;20.42;11.85;;;;;;;5.53;84.01;101224.34;4997518;28;20026;-57
2021/11/25 04:57:52;;;;;;;18.88;11.40;;;;;;;5.53;84.00;101213.69;5002149;28;20476;-58
2021/11/25 05:00:19;;;;;;;18.30;10.77;;;;;;;5.52;84.35;101211.25;4997421;28;20033;-56
2021/11/25 05:02:44;;;;;;;22.77;13.10;;;;;;;5.54;84.40;101203.88;4998694;28;20519;-57
2021/11/25 05:05:10;;;;;;;21.27;12.13;;;;;;;5.52;84.05;101203.28;4998959;28;20026;-54
2021/11/25 05:07:36;;;;;;;21.88;11.70;;;;;;;5.48;83.77;101197.56;4997709;28;20117;-56
2021/11/25 05:10:04;;;;;;;22.08;12.93;;;;;;;5.38;83.84;101200.59;5000382;28;20116;-57
2021/11/25 05:12:30;;;;;;;20.48;12.95;;;;;;;5.25;84.03;101200.59;4997784;28;20381;-56
2021/11/25 05:14:55;;;;;;;24.70;13.43;;;;;;;5.24;84.34;101193.66;4999951;28;20520;-57
2021/11/25 05:17:21;;;;;;;28.65;14.10;;;;;;;5.23;84.51;101202.66;4991628;28;20018;-58
2021/11/25 05:19:47;;;;;;;26.60;14.50;;;;;;;5.21;84.81;101191.41;4997303;28;20433;-54
2021/11/25 05:22:12;;;;;;;23.65;13.05;;;;;;;5.10;84.32;101195.47;5000646;28;20075;-55
2021/11/25 05:24:38;;;;;;;24.63;13.75;;;;;;;5.20;84.79;101191.56;4998859;28;20132;-55
2021/11/25 05:27:03;;;;;;;24.88;13.70;;;;;;;5.26;85.08;101190.78;5000110;28;20049;-55
2021/11/25 05:29:29;;;;;;;23.95;13.50;;;;;;;5.30;84.46;101187.53;4999815;28;20470;-57
2021/11/25 05:31:55;;;;;;;24.00;13.55;;;;;;;5.35;84.59;101194.88;5004227;28;20113;-55
2021/11/25 05:34:21;;;;;;;30.05;13.55;;;;;;;5.35;84.85;101190.38;4997075;28;20144;-57
2021/11/25 05:36:47;;;;;;;25.70;14.25;;;;;;;5.33;84.78;101186.28;5003170;28;20026;-57
2021/11/25 05:39:13;;;;;;;24.08;14.18;;;;;;;5.37;84.83;101188.34;4999214;28;20029;-56
2021/11/25 05:41:40;;;;;;;28.35;14.57;;;;;;;5.39;84.68;101173.03;4998524;28;20032;-57
2021/11/25 05:44:07;;;;;;;28.58;15.95;;;;;;;5.36;84.52;101175.25;4998349;28;20361;-56
2021/11/25 05:46:32;;;;;;;25.48;14.75;;;;;;;5.18;84.03;101177.69;5001869;28;20098;-54
2021/11/25 05:48:58;;;;;;;29.30;16.40;;;;;;;5.08;84.23;101170.13;4999522;28;20026;-57
2021/11/25 05:51:24;;;;;;;31.38;17.52;;;;;;;5.01;83.91;101169.28;4999620;28;20714;-59
2021/11/25 05:53:50;;;;;;;29.05;16.58;;;;;;;4.93;84.29;101175.59;5000729;28;20468;-55
2021/11/25 05:56:15;;;;;;;28.23;15.65;;;;;;;4.95;84.07;101168.25;5001699;28;20022;-60
2021/11/25 05:58:42;;;;;;;28.63;15.48;;;;;;;4.90;83.11;101168.03;5001848;28;20069;-56
2021/11/25 06:01:08;;;;;;;34.55;18.13;;;;;;;4.85;82.83;101173.97;5002492;28;20018;-56
2021/11/25 06:03:34;;;;;;;30.77;16.45;;;;;;;4.65;82.78;101174.88;4998718;28;20033;-55
2021/11/25 06:06:00;;;;;;;28.67;15.50;;;;;;;4.63;83.42;101167.13;4996289;28;20128;-56
2021/11/25 06:08:25;;;;;;;30.88;18.13;;;;;;;4.79;83.25;101169.41;4998617;28;20544;-57
2021/11/25 06:10:51;;;;;;;30.67;16.10;;;;;;;4.89;83.33;101171.72;5001014;28;20149;-57
2021/11/25 06:13:16;;;;;;;28.80;15.82;;;;;;;4.71;82.26;101176.75;5001116;28;20381;-58
2021/11/25 06:15:42;;;;;;;27.17;16.75;;;;;;;4.75;83.10;101170.84;4996207;28;20419;-56
2021/11/25 06:18:07;;;;;;;25.67;15.70;;;;;;;4.75;82.59;101170.03;4998640;28;20032;-59
2021/11/25 06:20:33;;;;;;;29.48;15.90;;;;;;;4.81;82.37;101169.22;4991224;28;20139;-56
2021/11/25 06:22:58;;;;;;;31.27;17.85;;;;;;;4.81;82.49;101171.88;4999705;28;20395;-56
2021/11/25 06:25:25;;;;;;;31.90;16.63;;;;;;;4.78;82.17;101167.78;4998042;28;20029;-54
2021/11/25 06:27:51;;;;;;;29.27;16.50;;;;;;;4.83;82.48;101164.53;5001163;28;20026;-55
2021/11/25 06:30:17;;;;;;;31.33;17.42;;;;;;;4.85;82.34;101152.72;4995045;28;20140;-56
2021/11/25 06:32:46;;;;;;;32.08;18.08;;;;;;;4.82;82.22;101149.63;4997112;28;20472;-58
2021/11/25 06:35:15;;;;;;;27.65;16.20;;;;;;;4.73;81.83;101159.63;4981267;28;20324;-58
2021/11/25 06:37:46;;;;;;;30.83;16.83;;;;;;;4.81;82.32;101155.94;4992083;28;20033;-55
2021/11/25 06:40:17;;;;;;;33.70;17.38;;;;;;;4.69;82.62;101152.25;4988327;28;20026;-54
2021/11/25 06:42:43;;;;;;;30.25;17.58;;;;;;;4.62;82.46;101151.41;4992244;28;20041;-58
2021/11/25 06:45:09;;;;;;;34.58;17.58;;;;;;;4.59;83.04;101146.50;4993215;28;20253;-56
2021/11/25 06:47:36;;;;;;;34.05;19.02;;;;;;;4.57;83.35;101148.53;4990782;28;20064;-57
2021/11/25 06:50:01;;;;;;;30.73;16.52;;;;;;;4.33;82.90;101141.91;4992962;28;20116;-55
2021/11/25 06:52:27;;;;;;;29.65;14.52;;;;;;;4.32;83.04;101137.63;5002223;28;20168;-56
2021/11/25 06:54:52;;;;;;;32.80;18.13;;;;;;;4.38;83.18;101134.97;4993000;28;20091;-58
2021/11/25 06:57:17;;;;;;;35.05;19.13;;;;;;;4.35;83.16;101137.22;4994159;28;20025;-57
2021/11/25 06:59:43;;;;;;;35.45;19.05;;;;;;;4.46;83.25;101136.63;4991899;28;20041;-56
2021/11/25 07:02:08;;;;;;;33.42;19.50;;;;;;;4.31;83.00;101128.00;4989366;28;20037;-59
2021/11/25 07:04:34;;;;;;;32.95;18.75;;;;;;;4.30;83.27;101121.06;4992527;28;20452;-57
2021/11/25 07:07:01;;;;;;;34.85;18.35;;;;;;;4.27;82.91;101119.63;4991044;28;20057;-54
2021/11/25 07:09:27;;;;;;;42.13;19.98;;;;;;;4.25;83.48;101121.66;4989923;28;21716;-54
2021/11/25 07:11:52;;;;;;;36.65;20.45;;;;;;;4.31;82.82;101112.94;4992671;28;20029;-55
2021/11/25 07:14:18;;;;;;;38.30;20.58;;;;;;;4.31;82.70;101112.09;4991466;28;20484;-55
2021/11/25 07:16:43;;;;;;;36.35;20.80;;;;;;;4.34;82.76;101109.06;4991782;28;20036;-58
2021/11/25 07:19:09;;;;;;;37.53;19.42;;;;;;;4.32;81.54;101116.41;4993945;28;20154;-59
2021/11/25 07:21:34;;;;;;;33.70;19.02;;;;;;;4.24;81.75;101112.06;4991148;28;20037;-56
2021/11/25 07:24:00;;;;;;;39.47;21.90;;;;;;;4.26;81.89;101104.72;4989446;28;20036;-53
2021/11/25 07:26:26;;;;;;;38.55;21.50;;;;;;;4.31;81.53;101097.00;4991945;28;20026;-53
2021/11/25 07:28:51;;;;;;;35.35;19.60;;;;;;;4.25;81.47;101101.25;4993803;28;20030;-58
2021/11/25 07:31:17;;;;;;;34.47;18.75;;;;;;;4.11;80.86;101094.25;4992063;28;20405;-59
2021/11/25 07:33:42;;;;;;;36.13;19.63;;;;;;;4.10;81.08;101091.78;4990368;28;20532;-56
2021/11/25 07:36:08;;;;;;;36.72;20.85;;;;;;;4.21;81.49;101088.59;4993422;28;20019;-56
2021/11/25 07:38:34;;;;;;;38.63;21.52;;;;;;;4.32;81.45;101081.91;4985530;28;20028;-55
2021/11/25 07:41:00;;;;;;;37.17;20.15;;;;;;;4.34;81.17;101086.00;4992603;28;20083;-53
2021/11/25 07:43:27;;;;;;;36.85;20.38;;;;;;;4.24;80.99;101077.59;4991725;28;20038;-54
2021/11/25 07:45:52;;;;;;;36.20;19.33;;;;;;;4.29;81.31;101072.50;4992966;28;20053;-57
2021/11/25 07:48:18;;;;;;;38.47;20.52;;;;;;;4.21;81.03;101064.72;4991991;28;20018;-55
2021/11/25 07:50:43;;;;;;;37.45;21.67;;;;;;;4.22;81.98;101059.22;4990837;28;20550;-57
2021/11/25 07:53:09;;;;;;;36.67;19.77;;;;;;;4.15;81.95;101060.22;4993385;28;20079;-56
2021/11/25 07:55:35;;;;;;;38.00;20.63;;;;;;;4.21;81.92;101054.94;4999033;28;20299;-55
2021/11/25 07:58:00;;;;;;;37.17;19.38;;;;;;;4.13;82.20;101051.63;4993045;28;20399;-58
2021/11/25 08:00:28;;;;;;;36.75;21.40;;;;;;;4.20;82.21;101044.53;4996529;28;20080;-56
2021/11/25 08:02:54;;;;;;;36.75;19.63;;;;;;;4.12;82.91;101045.50;5014753;22;20073;-82
2021/11/25 08:05:24;;;;;;;36.03;19.00;;;;;;;4.16;82.73;101040.63;5038860;28;20036;-82
2021/11/25 08:07:49;;;;;;;31.77;17.80;;;;;;;4.12;82.15;101039.38;5018707;28;20502;-82
2021/11/25 08:10:15;;;;;;;41.55;19.08;;;;;;;4.18;82.31;101042.06;5019646;28;20120;-82
2021/11/25 08:12:42;;;;;;;32.80;19.70;;;;;;;4.23;82.31;101039.63;5038951;28;20029;-82
2021/11/25 08:15:08;;;;;;;34.05;19.67;;;;;;;4.27;82.43;101031.28;5020571;28;20024;-82
2021/11/25 08:17:34;;;;;;;35.33;17.65;;;;;;;4.31;82.34;101030.69;5024488;28;20041;-82
2021/11/25 08:19:59;;;;;;;36.05;19.80;;;;;;;4.37;82.03;101029.06;5021894;28;20037;-82
2021/11/25 08:22:25;;;;;;;32.42;18.10;;;;;;;4.40;81.90;101024.19;5023061;28;20028;-82
2021/11/25 08:24:50;;;;;;;34.65;20.08;;;;;;;4.47;81.94;101017.03;5020947;28;20040;-83
2021/11/25 08:27:16;;;;;;;34.45;18.33;;;;;;;4.41;81.44;101022.34;5020408;28;20376;-82
2021/11/25 08:29:43;;;;;;;35.53;19.80;;;;;;;4.57;81.35;101008.69;5025101;28;20132;-82
2021/11/25 08:32:09;;;;;;;32.50;18.50;;;;;;;4.51;81.11;101018.28;5022251;28;20025;-82
2021/11/25 08:34:36;;;;;;;35.30;19.15;;;;;;;4.63;80.97;101013.19;5020349;28;20029;-82
2021/11/25 08:37:02;;;;;;;34.22;18.63;;;;;;;4.66;81.22;101012.78;5023359;28;20040;-82
2021/11/25 08:39:28;;;;;;;31.85;18.70;;;;;;;4.67;80.66;101005.63;5019670;28;20388;-82
2021/11/25 08:41:53;;;;;;;31.65;16.80;;;;;;;4.65;80.49;101005.84;5020885;28;20045;-82
2021/11/25 08:44:19;;;;;;;33.70;19.48;;;;;;;4.59;80.10;101004.00;5017875;28;20939;-82
2021/11/25 08:46:45;;;;;;;30.90;16.67;;;;;;;4.48;79.59;100996.63;5022179;28;20079;-82
2021/11/25 08:49:11;;;;;;;30.00;16.77;;;;;;;4.62;79.86;100998.28;5025445;28;20088;-82
2021/11/25 08:51:37;;;;;;;29.38;16.65;;;;;;;4.73;80.02;101002.19;5025488;28;20037;-82
2021/11/25 08:54:03;;;;;;;29.08;17.08;;;;;;;4.69;79.52;100993.81;5020513;28;20179;-82
2021/11/25 08:56:29;;;;;;;31.00;17.08;;;;;;;4.64;79.55;100995.44;5022823;28;20770;-82
2021/11/25 08:58:55;;;;;;;26.23;15.35;;;;;;;4.58;79.98;100989.09;5027934;28;20131;-82
2021/11/25 09:01:20;;;;;;;35.67;18.65;;;;;;;4.70;80.28;100990.13;5027129;28;20072;-82
2021/11/25 09:03:46;;;;;;;30.38;17.33;;;;;;;4.75;79.89;100985.03;5020118;28;20049;-82
2021/11/25 09:06:11;;;;;;;27.88;16.38;;;;;;;4.71;79.52;100993.63;5026096;28;20094;-82
2021/11/25 09:08:37;;;;;;;26.50;15.20;;;;;;;4.67;79.40;100989.72;5027768;28;20056;-82
2021/11/25 09:11:03;;;;;;;33.60;17.40;;;;;;;4.78;79.55;100981.97;5027453;28;20111;-83
2021/11/25 09:13:28;;;;;;;29.95;16.95;;;;;;;4.76;78.98;100988.50;5025565;28;20478;-82
2021/11/25 09:15:54;;;;;;;27.95;15.88;;;;;;;4.78;79.03;100987.28;5027356;28;20029;-82
2021/11/25 09:18:21;;;;;;;30.60;16.92;;;;;;;4.92;78.87;100980.13;5026470;28;20033;-82
2021/11/25 09:20:46;;;;;;;29.30;16.60;;;;;;;4.75;78.55;100978.91;5020170;28;20034;-82
2021/11/25 09:23:17;;;;;;;31.45;16.10;;;;;;;4.83;78.04;100984.00;5019843;28;20029;-82
2021/11/25 09:25:44;;;;;;;28.98;15.63;;;;;;;4.88;77.74;100986.06;5021442;28;20068;-82
2021/11/25 09:28:13;;;;;;;28.40;15.80;;;;;;;4.75;76.85;100982.38;5025883;28;20065;-82
2021/11/25 09:30:39;;;;;;;28.25;16.63;;;;;;;4.83;77.57;100976.03;5027268;28;20472;-82
2021/11/25 09:33:05;;;;;;;29.67;16.15;;;;;;;4.89;77.16;100983.19;5021049;28;20033;-82
2021/11/25 09:35:31;;;;;;;29.83;16.95;;;;;;;4.89;77.50;100977.88;5021136;28;20028;-82
2021/11/25 09:37:57;;;;;;;27.92;16.52;;;;;;;4.95;77.48;100978.91;5025129;28;20026;-82
2021/11/25 09:40:23;;;;;;;28.60;16.17;;;;;;;5.05;77.52;100966.84;5039590;28;20021;-82
2021/11/25 09:42:58;;;;;;;28.60;15.77;;;;;;;4.98;75.96;100959.91;5027994;28;20116;-82
2021/11/25 09:45:24;;;;;;;26.67;15.53;;;;;;;4.96;75.86;100952.13;5026499;28;21078;-82
2021/11/25 09:47:56;;;;;;;27.88;16.42;;;;;;;4.93;76.18;100947.25;5027579;28;20361;-82
2021/11/25 09:50:24;;;;;;;28.13;15.30;;;;;;;4.83;74.19;100944.19;5027518;28;20032;-82
2021/11/25 09:52:52;;;;;;;29.67;15.57;;;;;;;4.93;74.69;100941.13;5023910;28;20117;-82
2021/11/25 09:55:18;;;;;;;24.30;14.18;;;;;;;4.72;74.23;100936.84;5027576;28;20037;-82
2021/11/25 09:57:44;;;;;;;28.80;16.35;;;;;;;4.90;75.00;100931.72;5023001;28;20187;-82
2021/11/25 10:00:11;;;;;;;26.45;14.20;;;;;;;4.82;74.73;100923.97;5026432;28;20032;-82
2021/11/25 10:02:37;;;;;;;27.58;16.45;;;;;;;4.96;75.13;100930.91;5026566;28;20025;-82
2021/11/25 10:05:04;;;;;;;29.83;17.17;;;;;;;5.09;74.92;100922.91;5020224;28;20399;-81
2021/11/25 10:07:31;;;;;;;27.67;15.93;;;;;;;5.04;74.37;100922.72;5018466;28;20045;-82
2021/11/25 10:09:57;;;;;;;32.47;16.98;;;;;;;5.13;74.24;100925.97;5023719;28;20492;-82
2021/11/25 10:12:37;;;;;;;27.77;14.82;;;;;;;5.01;73.31;100911.69;5023554;28;20243;-82
2021/11/25 10:15:41;;;;;;;26.77;15.73;;;;;;;5.12;73.51;100909.22;5026344;28;20017;-82
2021/11/25 10:18:15;;;;;;;27.73;15.15;;;;;;;5.11;73.43;100907.59;4987999;28;20054;-82
2021/11/25 10:20:47;;;;;;;29.85;16.45;;;;;;;5.17;72.92;100916.56;4989491;28;20024;-82
2021/11/25 10:23:20;;;;;;;27.77;15.25;;;;;;;4.99;71.92;100909.25;5005166;28;20037;-82
2021/11/25 10:25:58;;;;;;;25.70;15.82;;;;;;;5.04;72.30;100905.97;5022517;28;20040;-82
2021/11/25 10:28:32;;;;;;;33.15;17.25;;;;;;;5.11;72.82;100901.47;5024918;28;20033;-82
2021/11/25 10:31:08;;;;;;;32.47;18.25;;;;;;;5.15;72.39;100900.81;5026694;28;20398;-82
2021/11/25 10:33:55;;;;;;;30.20;16.23;;;;;;;5.08;71.49;100896.56;5026009;28;20028;-82
2021/11/25 10:39:16;;;;;;;26.27;15.20;;;;;;;5.11;71.16;100885.53;5023445;28;20030;-82
2021/11/25 10:41:47;;;;;;;30.17;17.00;;;;;;;5.07;71.51;100879.00;5040924;28;20025;-82
2021/11/25 10:44:24;;;;;;;29.13;16.52;;;;;;;4.99;71.03;100874.72;5025438;28;20753;-82
2021/11/25 10:46:55;;;;;;;26.88;16.00;;;;;;;5.14;71.56;100874.47;5028204;28;20044;-82
2021/11/25 10:49:39;;;;;;;31.73;17.65;;;;;;;5.00;71.06;100879.00;5026524;28;20025;-82
2021/11/25 10:52:36;;;;;;;25.70;15.45;;;;;;;5.12;71.54;100866.72;5024073;28;20026;-82
2021/11/25 10:55:06;;;;;;;24.50;14.25;;;;;;;5.21;71.46;100863.84;5024750;28;20113;-83
2021/11/25 10:57:41;;;;;;;28.75;16.42;;;;;;;5.11;70.74;100864.28;5021392;28;20022;-82
2021/11/25 11:00:13;;;;;;;29.27;17.48;;;;;;;5.20;71.51;100864.84;5017151;28;20025;-82
2021/11/25 11:02:39;;;;;;;25.00;15.32;;;;;;;5.27;71.69;100863.81;5023870;28;20034;-82
2021/11/25 11:05:13;;;;;;;27.35;15.90;;;;;;;5.11;70.82;100859.78;5025233;28;20045;-82
2021/11/25 11:07:44;;;;;;;26.15;15.98;;;;;;;4.98;71.06;100859.81;5025259;28;20391;-82
2021/11/25 11:10:21;;;;;;;23.77;14.55;;;;;;;5.10;71.05;100852.84;5038823;28;20117;-82
2021/11/25 11:13:13;;;;;;;24.85;15.63;;;;;;;5.04;70.63;100848.38;5026571;28;20602;-82
2021/11/25 11:15:56;;;;;;;24.15;14.30;;;;;;;4.93;70.65;100859.63;5019516;28;21020;-82
2021/11/25 11:21:34;;;;;;;28.00;15.30;;;;;;;4.99;70.53;100858.78;5020412;28;21816;-81
2021/11/25 11:24:05;;;;;;;30.17;15.88;;;;;;;4.99;70.77;100853.47;5037148;28;20033;-82
2021/11/25 11:26:32;;;;;;;31.45;16.60;;;;;;;4.99;70.80;100839.38;5023193;28;20032;-81
2021/11/25 11:28:58;;;;;;;28.13;16.13;;;;;;;5.07;71.13;100837.31;5022981;28;20088;-82
2021/11/25 11:31:24;;;;;;;28.75;16.33;;;;;;;4.88;70.52;100842.69;5018921;28;20034;-82
2021/11/25 11:33:50;;;;;;;32.15;16.98;;;;;;;4.87;70.89;100833.91;5020390;28;20542;-81